createdAt,value
2018-08-19T00:02:14.385Z,98.20
2018-08-19T00:05:06.002Z,98.30
2018-08-19T00:07:38.932Z,98.00
2018-08-19T00:10:09.262Z,98.40
2018-08-19T00:12:46.772Z,98.50
2018-08-19T00:15:17.238Z,98.40
2018-08-19T00:17:48.981Z,98.60
2018-08-19T00:20:26.670Z,98.80
2018-08-19T00:22:57.162Z,98.90
2018-08-19T00:25:34.729Z,98.80
2018-08-19T00:28:08.615Z,98.90
2018-08-19T00:30:39.876Z,99.30
2018-08-19T00:33:10.480Z,99.00
2018-08-19T00:35:42.559Z,99.10
2018-08-19T00:38:22.951Z,99.30
2018-08-19T00:40:58.443Z,99.30
2018-08-19T00:43:28.647Z,99.40
2018-08-19T00:46:05.069Z,99.40
2018-08-19T00:48:34.523Z,99.30
2018-08-19T00:51:04.189Z,99.30
2018-08-19T00:53:33.241Z,99.40
2018-08-19T00:56:02.522Z,99.20
2018-08-19T00:58:32.551Z,99.40
2018-08-19T01:01:03.402Z,99.20
2018-08-19T01:03:45.057Z,99.10
2018-08-19T01:06:14.720Z,99.10
2018-08-19T01:11:36.182Z,99.40
2018-08-19T01:14:09.312Z,99.60
2018-08-19T01:16:40.771Z,99.50
2018-08-19T01:19:24.031Z,99.50
2018-08-19T01:21:54.192Z,99.30
2018-08-19T01:24:24.841Z,99.60
2018-08-19T01:26:54.095Z,99.40
2018-08-19T01:29:37.989Z,99.40
2018-08-19T01:32:12.162Z,99.50
2018-08-19T01:34:44.510Z,99.80
2018-08-19T01:37:14.575Z,99.90
2018-08-19T01:39:43.957Z,99.90
2018-08-19T01:42:13.541Z,99.90
2018-08-19T01:44:44.722Z,99.90
2018-08-19T01:47:18.585Z,99.90
2018-08-19T01:49:53.793Z,99.90
2018-08-19T01:52:35.421Z,99.90
2018-08-19T01:55:05.330Z,99.90
2018-08-19T01:57:40.233Z,99.90
2018-08-19T02:00:11.253Z,99.90
2018-08-19T02:02:52.295Z,99.90
2018-08-19T02:05:21.673Z,99.90
2018-08-19T02:08:10.773Z,99.90
2018-08-19T02:10:52.662Z,99.90
2018-08-19T02:13:22.354Z,99.90
2018-08-19T02:15:51.864Z,99.90
2018-08-19T02:18:21.761Z,99.90
2018-08-19T02:20:51.115Z,99.90
2018-08-19T02:23:23.020Z,99.90
2018-08-19T02:25:53.778Z,99.90
2018-08-19T02:28:24.592Z,99.90
2018-08-19T02:31:02.201Z,99.90
2018-08-19T02:33:34.671Z,99.90
2018-08-19T02:36:08.554Z,99.90
2018-08-19T02:38:39.418Z,99.90
2018-08-19T02:41:09.706Z,99.90
2018-08-19T02:43:47.622Z,99.90
2018-08-19T02:46:16.972Z,99.90
2018-08-19T02:48:52.158Z,99.90
2018-08-19T02:51:25.838Z,99.90
2018-08-19T02:54:04.080Z,99.90
2018-08-19T02:56:37.115Z,99.90
2018-08-19T02:59:14.680Z,99.90
2018-08-19T03:01:47.537Z,99.90
2018-08-19T03:04:20.721Z,99.90
2018-08-19T03:06:50.212Z,99.90
2018-08-19T03:09:19.813Z,99.90
2018-08-19T03:11:58.727Z,99.90
2018-08-19T03:14:28.882Z,99.90
2018-08-19T03:16:59.570Z,99.90
2018-08-19T03:19:29.304Z,99.90
2018-08-19T03:22:01.001Z,99.90
2018-08-19T03:24:30.156Z,99.90
2018-08-19T03:27:01.745Z,99.90
2018-08-19T03:29:32.516Z,99.90
2018-08-19T03:32:02.643Z,99.90
2018-08-19T03:34:35.818Z,99.90
2018-08-19T03:37:07.228Z,99.90
2018-08-19T03:39:48.722Z,99.90
2018-08-19T03:42:39.348Z,99.90
2018-08-19T03:45:22.632Z,99.90
2018-08-19T03:47:53.270Z,99.90
2018-08-19T03:50:24.692Z,99.90
2018-08-19T03:52:54.252Z,99.90
2018-08-19T03:55:29.132Z,99.90
2018-08-19T03:58:04.753Z,99.90
2018-08-19T04:00:37.802Z,99.90
2018-08-19T04:03:17.287Z,99.90
2018-08-19T04:05:55.700Z,99.90
2018-08-19T04:08:59.041Z,99.90
2018-08-19T04:11:29.139Z,99.90
2018-08-19T04:13:57.949Z,99.90
2018-08-19T04:16:26.928Z,99.90
2018-08-19T04:19:04.638Z,99.90
2018-08-19T04:21:42.186Z,99.90
2018-08-19T04:24:11.756Z,99.90
2018-08-19T04:26:46.797Z,99.90
2018-08-19T04:29:28.291Z,99.90
2018-08-19T04:31:58.340Z,99.90
2018-08-19T04:34:27.434Z,99.90
2018-08-19T04:36:56.740Z,99.90
2018-08-19T04:39:27.539Z,99.90
2018-08-19T04:41:56.844Z,99.90
2018-08-19T04:44:26.454Z,99.90
2018-08-19T04:46:56.684Z,99.90
2018-08-19T04:49:25.712Z,99.90
2018-08-19T04:51:55.656Z,99.90
2018-08-19T04:54:24.765Z,99.90
2018-08-19T04:56:54.628Z,99.90
2018-08-19T04:59:23.757Z,99.90
2018-08-19T05:01:52.710Z,99.90
2018-08-19T05:04:21.982Z,99.90
2018-08-19T05:06:51.253Z,99.90
2018-08-19T05:09:20.124Z,99.90
2018-08-19T05:11:49.856Z,99.90
2018-08-19T05:14:18.701Z,99.90
2018-08-19T05:16:48.139Z,99.90
2018-08-19T05:19:17.689Z,99.90
2018-08-19T05:21:46.589Z,99.90
2018-08-19T05:24:17.196Z,99.90
2018-08-19T05:26:48.569Z,99.90
2018-08-19T05:29:17.449Z,99.90
2018-08-19T05:31:50.275Z,99.90
2018-08-19T05:34:35.795Z,99.90
2018-08-19T05:37:05.329Z,99.90
2018-08-19T05:39:34.580Z,99.90
2018-08-19T05:42:09.427Z,99.90
2018-08-19T05:44:40.103Z,99.90
2018-08-19T05:47:18.304Z,99.90
2018-08-19T05:49:48.378Z,99.90
2018-08-19T05:52:19.239Z,99.90
2018-08-19T05:55:07.524Z,99.90
2018-08-19T05:57:36.561Z,99.90
2018-08-19T06:00:11.024Z,99.90
2018-08-19T06:02:43.878Z,99.90
2018-08-19T06:05:13.288Z,99.90
2018-08-19T06:07:42.513Z,99.90
2018-08-19T06:10:11.874Z,99.90
2018-08-19T06:12:42.242Z,99.90
2018-08-19T06:15:11.613Z,99.90
2018-08-19T06:17:41.025Z,99.90
2018-08-19T06:20:10.663Z,99.90
2018-08-19T06:22:41.851Z,99.90
2018-08-19T06:25:13.571Z,99.90
2018-08-19T06:27:51.090Z,99.90
2018-08-19T06:30:20.339Z,99.90
2018-08-19T06:32:49.499Z,99.80
2018-08-19T06:35:19.441Z,97.90
2018-08-19T06:37:48.285Z,97.40
2018-08-19T06:40:20.419Z,95.30
2018-08-19T06:42:51.177Z,93.20
2018-08-19T06:45:21.038Z,91.00
2018-08-19T06:47:50.665Z,88.70
2018-08-19T06:50:34.210Z,85.20
2018-08-19T06:53:03.171Z,82.00
2018-08-19T06:55:33.030Z,78.00
2018-08-19T06:58:02.673Z,77.80
2018-08-19T07:00:32.798Z,80.00
2018-08-19T07:03:04.381Z,81.70
2018-08-19T07:05:35.590Z,83.20
2018-08-19T07:08:05.052Z,81.80
2018-08-19T07:10:37.653Z,83.60
2018-08-19T07:13:09.950Z,87.20
2018-08-19T07:15:40.286Z,88.10
2018-08-19T07:18:12.370Z,90.20
2018-08-19T07:20:44.313Z,91.90
2018-08-19T07:23:14.202Z,92.80
2018-08-19T07:25:45.739Z,92.70
2018-08-19T07:28:16.730Z,92.70
2018-08-19T07:30:47.000Z,92.00
2018-08-19T07:33:16.635Z,93.10
2018-08-19T07:35:47.443Z,93.80
2018-08-19T07:38:18.590Z,93.80
2018-08-19T07:41:00.949Z,93.00
2018-08-19T07:43:31.606Z,92.40
2018-08-19T07:46:00.859Z,91.00
2018-08-19T07:48:30.013Z,88.10
2018-08-19T07:50:59.503Z,81.70
2018-08-19T07:53:28.964Z,79.70
2018-08-19T07:55:58.232Z,82.90
2018-08-19T07:58:40.657Z,84.80
2018-08-19T08:01:09.748Z,87.90
2018-08-19T08:03:41.229Z,90.50
2018-08-19T08:06:10.148Z,90.90
2018-08-19T08:08:40.283Z,90.50
2018-08-19T08:11:09.429Z,88.50
2018-08-19T08:13:38.764Z,86.20
2018-08-19T08:16:09.724Z,81.40
2018-08-19T08:18:38.756Z,75.40
2018-08-19T08:21:14.898Z,70.10
2018-08-19T08:23:44.173Z,66.20
2018-08-19T08:26:13.458Z,66.90
2018-08-19T08:28:51.629Z,61.60
2018-08-19T08:31:22.192Z,61.30
2018-08-19T08:33:52.206Z,61.20
2018-08-19T08:36:21.574Z,57.70
2018-08-19T08:38:51.283Z,55.50
2018-08-19T08:41:21.795Z,53.60
2018-08-19T08:43:51.548Z,53.40
2018-08-19T08:46:21.295Z,54.90
2018-08-19T08:48:53.728Z,53.80
2018-08-19T08:51:24.026Z,52.90
2018-08-19T08:53:54.282Z,52.30
2018-08-19T08:56:24.401Z,51.20
2018-08-19T08:58:53.572Z,49.30
2018-08-19T09:01:23.165Z,48.60
2018-08-19T09:03:52.263Z,49.90
2018-08-19T09:06:30.036Z,50.70
2018-08-19T09:08:59.308Z,50.90
2018-08-19T09:11:29.645Z,50.50
2018-08-19T09:14:06.275Z,49.80
2018-08-19T09:16:35.543Z,51.00
2018-08-19T09:19:04.754Z,51.00
2018-08-19T09:21:34.404Z,49.90
2018-08-19T09:24:05.133Z,47.70
2018-08-19T09:26:34.333Z,45.30
2018-08-19T09:29:09.203Z,44.90
2018-08-19T09:31:45.412Z,46.00
2018-08-19T09:34:16.173Z,47.00
2018-08-19T09:36:45.722Z,48.40
2018-08-19T09:42:09.416Z,47.80
2018-08-19T09:44:38.747Z,49.20
2018-08-19T09:47:08.271Z,50.80
2018-08-19T09:49:37.515Z,49.80
2018-08-19T09:52:07.744Z,48.50
2018-08-19T09:54:37.824Z,49.40
2018-08-19T09:57:09.181Z,47.40
2018-08-19T09:59:38.273Z,44.50
2018-08-19T10:02:10.237Z,43.80
2018-08-19T10:04:42.746Z,44.00
2018-08-19T10:07:17.476Z,43.50
2018-08-19T10:09:52.294Z,41.40
2018-08-19T10:12:21.766Z,40.00
2018-08-19T10:14:53.140Z,40.90
2018-08-19T10:17:23.158Z,40.20
2018-08-19T10:19:52.805Z,38.60
2018-08-19T10:22:31.945Z,38.60
2018-08-19T10:25:20.136Z,38.50
2018-08-19T10:30:28.241Z,40.60
2018-08-19T10:33:14.541Z,42.00
2018-08-19T10:35:45.800Z,40.10
2018-08-19T10:38:24.308Z,39.30
2018-08-19T10:41:05.241Z,39.20
2018-08-19T10:45:55.519Z,38.80
2018-08-19T10:48:25.878Z,35.90
2018-08-19T10:50:55.961Z,35.10
2018-08-19T10:53:29.570Z,36.50
2018-08-19T10:56:01.638Z,38.30
2018-08-19T10:58:32.811Z,38.60
2018-08-19T11:01:02.598Z,38.80
2018-08-19T11:03:32.597Z,38.60
2018-08-19T11:06:02.948Z,36.50
2018-08-19T11:08:33.031Z,36.30
2018-08-19T11:11:07.668Z,36.90
2018-08-19T11:13:37.738Z,36.20
2018-08-19T11:16:07.793Z,35.50
2018-08-19T11:18:39.943Z,36.30
2018-08-19T11:21:41.751Z,36.30
2018-08-19T11:24:23.915Z,36.10
2018-08-19T11:27:03.086Z,34.80
2018-08-19T11:29:41.252Z,36.00
2018-08-19T11:32:16.934Z,35.70
2018-08-19T11:34:46.901Z,35.90
2018-08-19T11:37:16.254Z,36.40
2018-08-19T11:39:46.087Z,36.70
2018-08-19T11:42:16.805Z,36.20
2018-08-19T11:44:52.253Z,35.80
2018-08-19T11:47:28.713Z,35.10
2018-08-19T11:49:58.457Z,36.70
2018-08-19T11:52:27.828Z,36.90
2018-08-19T11:54:57.438Z,36.70
2018-08-19T11:57:27.345Z,36.10
2018-08-19T11:59:57.008Z,34.20
2018-08-19T12:02:26.594Z,34.10
2018-08-19T12:04:56.228Z,33.70
2018-08-19T12:07:26.278Z,34.30
2018-08-19T12:10:01.559Z,34.50
2018-08-19T12:12:52.006Z,34.00
2018-08-19T12:15:21.583Z,34.00
2018-08-19T12:17:54.474Z,33.40
2018-08-19T12:20:29.151Z,32.80
2018-08-19T12:23:00.991Z,33.10
2018-08-19T12:25:30.857Z,33.90
2018-08-19T12:28:00.437Z,33.10
2018-08-19T12:30:32.360Z,33.10
2018-08-19T12:33:12.565Z,34.20
2018-08-19T12:35:42.001Z,34.50
2018-08-19T12:38:11.988Z,34.90
2018-08-19T12:40:48.047Z,34.00
2018-08-19T12:43:17.661Z,33.30
2018-08-19T12:45:47.725Z,34.10
2018-08-19T12:48:17.520Z,34.30
2018-08-19T12:50:54.163Z,33.50
2018-08-19T12:53:23.496Z,33.50
2018-08-19T12:55:53.553Z,33.50
2018-08-19T12:58:23.017Z,33.50
2018-08-19T13:00:52.645Z,34.10
2018-08-19T13:03:25.546Z,35.10
2018-08-19T13:06:06.217Z,35.80
2018-08-19T13:08:35.772Z,35.70
2018-08-19T13:11:06.977Z,34.90
2018-08-19T13:13:36.541Z,33.30
2018-08-19T13:16:06.568Z,33.10
2018-08-19T13:18:45.874Z,33.50
2018-08-19T13:21:16.455Z,34.70
2018-08-19T13:23:46.423Z,35.30
2018-08-19T13:26:15.827Z,35.20
2018-08-19T13:28:54.622Z,34.70
2018-08-19T13:31:43.851Z,34.60
2018-08-19T13:34:18.031Z,35.10
2018-08-19T13:36:49.155Z,35.50
2018-08-19T13:39:19.018Z,35.00
2018-08-19T13:41:49.884Z,34.80
2018-08-19T13:44:19.827Z,33.90
2018-08-19T13:46:49.264Z,34.10
2018-08-19T13:49:29.658Z,34.50
2018-08-19T13:52:02.671Z,34.40
2018-08-19T13:54:32.490Z,34.60
2018-08-19T13:57:03.023Z,35.00
2018-08-19T13:59:34.091Z,36.90
2018-08-19T14:02:04.050Z,39.50
2018-08-19T14:04:34.735Z,41.80
2018-08-19T14:07:06.438Z,42.90
2018-08-19T14:09:36.363Z,42.30
2018-08-19T14:12:06.754Z,42.30
2018-08-19T14:14:38.411Z,42.50
2018-08-19T14:17:09.106Z,42.30
2018-08-19T14:19:41.572Z,42.50
2018-08-19T14:22:12.303Z,42.90
2018-08-19T14:24:43.980Z,43.10
2018-08-19T14:27:15.526Z,42.90
2018-08-19T14:29:46.403Z,42.90
2018-08-19T14:32:37.060Z,43.50
2018-08-19T14:35:08.682Z,43.40
2018-08-19T14:37:41.879Z,42.60
2018-08-19T14:40:22.292Z,43.20
2018-08-19T14:42:53.323Z,43.60
2018-08-19T14:45:23.259Z,43.70
2018-08-19T14:47:53.224Z,43.50
2018-08-19T14:50:23.954Z,43.80
2018-08-19T14:52:55.100Z,44.30
2018-08-19T14:55:30.748Z,44.60
2018-08-19T14:58:01.653Z,45.00
2018-08-19T15:00:36.106Z,45.10
2018-08-19T15:03:10.584Z,44.70
2018-08-19T15:05:42.831Z,44.80
2018-08-19T15:08:20.089Z,44.80
2018-08-19T15:10:56.938Z,45.30
2018-08-19T15:13:26.815Z,45.30
2018-08-19T15:15:57.997Z,45.10
2018-08-19T15:18:35.630Z,45.50
2018-08-19T15:21:06.328Z,45.80
2018-08-19T15:23:37.090Z,45.80
2018-08-19T15:26:08.128Z,45.80
2018-08-19T15:28:44.527Z,46.10
2018-08-19T15:31:34.623Z,46.10
2018-08-19T15:34:18.641Z,45.70
2018-08-19T15:36:58.253Z,45.10
2018-08-19T15:39:30.094Z,45.20
2018-08-19T15:42:19.433Z,45.00
2018-08-19T15:44:51.387Z,45.00
2018-08-19T15:47:24.373Z,45.00
2018-08-19T15:50:13.021Z,45.30
2018-08-19T15:52:50.505Z,46.20
2018-08-19T15:55:22.274Z,44.80
2018-08-19T15:57:54.089Z,44.90
2018-08-19T16:00:28.248Z,45.30
2018-08-19T16:03:22.170Z,44.80
2018-08-19T16:06:15.572Z,44.90
2018-08-19T16:08:46.553Z,45.20
2018-08-19T16:11:17.281Z,45.00
2018-08-19T16:13:56.332Z,44.50
2018-08-19T16:16:39.054Z,44.20
2018-08-19T16:19:13.686Z,44.30
2018-08-19T16:21:50.300Z,44.70
2018-08-19T16:24:29.764Z,44.80
2018-08-19T16:27:21.034Z,45.30
2018-08-19T16:30:03.969Z,45.00
2018-08-19T16:32:36.461Z,45.10
2018-08-19T16:35:09.173Z,46.00
2018-08-19T16:37:39.626Z,47.00
2018-08-19T16:40:13.615Z,47.40
2018-08-19T16:43:01.250Z,47.60
2018-08-19T16:45:33.655Z,48.40
2018-08-19T16:48:19.134Z,49.20
2018-08-19T16:51:06.562Z,49.60
2018-08-19T16:53:37.692Z,50.10
2018-08-19T16:56:18.593Z,50.80
2018-08-19T16:59:03.356Z,51.50
2018-08-19T17:01:54.686Z,52.00
2018-08-19T17:04:40.859Z,52.50
2018-08-19T17:07:36.623Z,52.90
2018-08-19T17:10:11.058Z,53.00
2018-08-19T17:12:43.519Z,53.40
2018-08-19T17:15:22.496Z,54.00
2018-08-19T17:17:56.469Z,54.70
2018-08-19T17:20:30.489Z,55.00
2018-08-19T17:23:04.005Z,55.30
2018-08-19T17:25:36.058Z,55.70
2018-08-19T17:28:12.362Z,55.50
2018-08-19T17:30:59.732Z,55.80
2018-08-19T17:33:34.150Z,55.90
2018-08-19T17:36:09.508Z,56.20
2018-08-19T17:38:41.436Z,56.20
2018-08-19T17:41:12.831Z,56.80
2018-08-19T17:43:44.087Z,57.40
2018-08-19T17:46:15.901Z,57.60
2018-08-19T17:48:46.397Z,58.30
2018-08-19T17:51:38.037Z,58.40
2018-08-19T17:54:13.627Z,58.50
2018-08-19T17:56:58.595Z,58.80
2018-08-19T17:59:34.426Z,59.40
2018-08-19T18:02:09.033Z,59.60
2018-08-19T18:04:45.899Z,60.10
2018-08-19T18:07:20.082Z,60.70
2018-08-19T18:09:56.950Z,61.30
2018-08-19T18:12:27.144Z,61.70
2018-08-19T18:14:58.310Z,62.10
2018-08-19T18:17:29.430Z,62.70
2018-08-19T18:19:59.335Z,63.40
2018-08-19T18:22:29.451Z,64.40
2018-08-19T18:25:05.401Z,64.80
2018-08-19T18:27:35.635Z,65.40
2018-08-19T18:30:08.115Z,66.10
2018-08-19T18:32:37.604Z,66.30
2018-08-19T18:35:11.561Z,66.90
2018-08-19T18:37:41.549Z,67.00
2018-08-19T18:40:16.943Z,68.00
2018-08-19T18:42:48.613Z,68.10
2018-08-19T18:45:18.981Z,68.70
2018-08-19T18:47:54.080Z,69.40
2018-08-19T18:50:26.877Z,69.80
2018-08-19T18:52:56.642Z,70.00
2018-08-19T18:55:26.507Z,71.00
2018-08-19T18:57:57.862Z,71.40
2018-08-19T19:01:04.940Z,71.40
2018-08-19T19:03:37.108Z,72.00
2018-08-19T19:06:07.686Z,72.60
2018-08-19T19:08:40.948Z,72.70
2018-08-19T19:11:19.091Z,73.20
2018-08-19T19:14:10.739Z,73.60
2018-08-19T19:16:40.649Z,74.30
2018-08-19T19:19:11.886Z,74.60
2018-08-19T19:21:45.640Z,75.30
2018-08-19T19:24:15.464Z,75.30
2018-08-19T19:26:45.927Z,75.60
2018-08-19T19:29:30.416Z,76.30
2018-08-19T19:32:35.097Z,76.20
2018-08-19T19:35:22.293Z,77.00
2018-08-19T19:38:10.882Z,77.50
2018-08-19T19:40:55.762Z,77.80
2018-08-19T19:43:45.273Z,78.50
2018-08-19T19:46:27.330Z,78.80
2018-08-19T19:48:57.139Z,78.80
2018-08-19T19:51:26.963Z,78.80
2018-08-19T19:53:58.525Z,78.80
2018-08-19T19:56:28.850Z,79.20
2018-08-19T19:59:01.594Z,79.20
2018-08-19T20:01:33.980Z,79.50
2018-08-19T20:04:07.899Z,80.30
2018-08-19T20:06:40.871Z,80.20
2018-08-19T20:09:15.137Z,80.50
2018-08-19T20:11:44.935Z,80.50
2018-08-19T20:14:17.721Z,81.60
2018-08-19T20:16:50.319Z,82.80
2018-08-19T20:19:22.799Z,84.10
2018-08-19T20:21:58.430Z,85.00
2018-08-19T20:24:30.629Z,85.70
2018-08-19T20:27:02.465Z,85.60
2018-08-19T20:29:35.887Z,85.90
2018-08-19T20:32:05.971Z,86.20
2018-08-19T20:34:35.952Z,87.10
2018-08-19T20:37:05.972Z,87.30
2018-08-19T20:39:37.305Z,88.00
2018-08-19T20:42:08.450Z,88.90
2018-08-19T20:44:39.485Z,89.30
2018-08-19T20:47:09.354Z,89.20
2018-08-19T20:49:39.870Z,88.70
2018-08-19T20:52:09.670Z,89.40
2018-08-19T20:54:53.774Z,88.70
2018-08-19T20:57:23.973Z,88.80
2018-08-19T20:59:56.058Z,89.00
2018-08-19T21:02:25.670Z,88.50
2018-08-19T21:04:56.925Z,89.20
2018-08-19T21:07:28.376Z,88.80
2018-08-19T21:10:03.990Z,89.20
2018-08-19T21:12:33.424Z,89.50
2018-08-19T21:15:06.915Z,89.40
2018-08-19T21:17:41.807Z,89.70
2018-08-19T21:20:11.496Z,90.10
2018-08-19T21:22:41.189Z,90.30
2018-08-19T21:25:11.192Z,90.30
2018-08-19T21:27:41.152Z,90.30
2018-08-19T21:30:15.368Z,90.80
2018-08-19T21:32:55.716Z,90.80
2018-08-19T21:35:34.496Z,90.60
2018-08-19T21:38:09.430Z,90.10
2018-08-19T21:40:41.469Z,90.30
2018-08-19T21:43:11.839Z,90.20
2018-08-19T21:45:49.154Z,90.30
2018-08-19T21:48:33.399Z,90.30
2018-08-19T21:51:07.773Z,90.40
2018-08-19T21:56:38.717Z,90.40
2018-08-19T21:59:16.227Z,90.50
2018-08-19T22:02:02.062Z,90.50
2018-08-19T22:04:40.835Z,90.60
2018-08-19T22:07:25.260Z,90.80
2018-08-19T22:10:09.271Z,91.10
2018-08-19T22:12:55.828Z,91.10
2018-08-19T22:15:40.369Z,91.30
2018-08-19T22:18:31.070Z,91.00
2018-08-19T22:21:24.855Z,91.10
2018-08-19T22:23:57.381Z,91.10
2018-08-19T22:26:28.100Z,91.20
2018-08-19T22:29:10.119Z,91.50
2018-08-19T22:31:40.265Z,91.60
2018-08-19T22:34:09.907Z,91.80
2018-08-19T22:36:40.427Z,92.10
2018-08-19T22:39:17.321Z,92.10
2018-08-19T22:41:51.213Z,92.90
2018-08-19T22:44:20.766Z,93.60
2018-08-19T22:46:50.279Z,94.10
2018-08-19T22:49:19.746Z,94.40
2018-08-19T22:51:53.449Z,94.60
2018-08-19T22:54:29.200Z,94.90
2018-08-19T22:56:58.995Z,95.10
2018-08-19T22:59:41.829Z,95.40
2018-08-19T23:02:28.773Z,95.90
2018-08-19T23:05:15.104Z,96.00
2018-08-19T23:07:59.446Z,96.30
2018-08-19T23:10:32.001Z,96.60
2018-08-19T23:14:13.777Z,96.70
2018-08-19T23:16:44.235Z,97.10
2018-08-19T23:19:14.477Z,97.20
2018-08-19T23:21:44.447Z,97.50
2018-08-19T23:24:13.814Z,97.50
2018-08-19T23:26:43.099Z,97.50
2018-08-19T23:29:12.358Z,97.80
2018-08-19T23:31:48.915Z,98.00
2018-08-19T23:34:18.603Z,97.90
2018-08-19T23:36:48.148Z,97.90
2018-08-19T23:39:17.946Z,98.00
2018-08-19T23:41:48.378Z,98.10
2018-08-19T23:44:21.322Z,98.10
2018-08-19T23:46:51.275Z,97.90
2018-08-19T23:49:20.607Z,97.80
2018-08-19T23:51:49.907Z,97.80
2018-08-19T23:54:19.327Z,97.70
2018-08-19T23:56:51.187Z,97.70
2018-08-19T23:59:29.389Z,97.60
